BET - Bethel

Pirep is a free, collaborative database of all public and private airports located within the United States. All pilots are welcome to contribute, edit, and improve any airport they have local knowledge about, no registration required.
Are you familiar with this airport? Help out other pilots by adding your local knowledge.
Uploaded photos will be licensed under a CC BY-SA 4.0 license. Please only upload photos you have the rights to use.
Tags
Public
Undocu­mented
METAR / TAF
Webcam
Edit Tags
Food
Camping
Lodging
Car Rental
Bicycles
Swimming
Golfing
Fishing
Hot Springs
Museum
Flying Clubs
Airpark
Upcoming Events
No upcoming events. Is anything happening here soon?
*
*
*

Where exactly on/near the airport is this event taking place?

Is there a webpage with more information for this event?

Who should be contacted for more information?

What is this event all about?

Repeat every
Description
Transient Parking
Fuel Location
Landing & Tie-down Fees
Crew Car Availability
Flying Clubs
WiFi Access
Airport Statistics
Location: Bethel, AK
Elevation: 128ft
Sectional: Mc Grath
Activation date: Nov 1958
Fuel: 100, 100LL, A, A1 (prices)
Runway 01L/19R: 6,400ft
Runway 01R/19L: 4,000ft
Runway 12/30: 1,858ft
Access: Open to the public
Current Weather — VFR
  • Weather data is strictly informational and not for flight planning purposes.
  • METAR
    2024-05-30 00:53:00 AKDT
    Ceiling Wind Temperature Dewpoint Weather Visbility
    Sky clear 100° @ 8kt 44°F 35°F N/A 10SM
    Raw: PABE 300853Z 10008KT 10SM CLR 07/02 A2991 RMK AO2 SLP130 T00720022 401670050 51013 $
  • TAF
    2024-05-29 22:00:00 AKDT – 2024-05-30 04:00:00 AKDT
    Ceiling Wind Weather Visbility
    5,000ft 100° @ 13kt N/A 6SM
    Clouds: Broken @ 5,000ft, Overcast @ 10,000ft
    Raw: PABE 300520Z 3006/3106 10013KT P6SM BKN050 OVC100 FM301200 10005KT P6SM OVC050
  • TAF
    2024-05-30 04:00:00 AKDT – 2024-05-30 22:00:00 AKDT
    Ceiling Wind Weather Visbility
    5,000ft 100° @ 5kt N/A 6SM
    Clouds: Overcast @ 5,000ft
    Raw: PABE 300520Z 3006/3106 10013KT P6SM BKN050 OVC100 FM301200 10005KT P6SM OVC050
Click/tap to add an annotation marker to the map
Direct links to live image URLs will be displayed inline on this page. URLs to separate webpages will be linked to.
URL:
Direct links to live image URLs will be displayed inline on this page. URLs to separate webpages will be linked to.
URL:
Remarks
  • Clsd to acr ops with more than 30 pax seats unless ppr approved in writing by amgr - box 505, bethel, ak 99559.
  • Psnl & eqpt may be on rwy any time.
  • Ptarmigan & waterfowl invof arpt.
  • Wx camera avbl on internet at https://weathercams.faa.gov.
  • Mult pavement variations full len of twy c south of rwy 12/30.
Comments
Leave a comment What was your experience like at this airport?